METAR Data
IDs: Format: Raw Decoded Include TAF

Data at: 1451 UTC 25 Jan 2020

KMLB 251400Z 32010KT 10SM BKN048 OVC060 15/12 A3011 RMK AO2 T01500117

KMLB 251308Z 2513/2612 31008KT P6SM SCT040 SCT250
  TEMPO 2513/2514 BKN030
  FM251430 32010KT P6SM SKC
  FM260000 VRB04KT P6SM SKC


KTIX 251446Z 34012KT 7SM SKC 18/09 A3014

KTIX 251121Z 2512/2612 29010KT P6SM SCT250
  FM251400 33009KT P6SM SKC
  FM260000 VRB02KT P6SM SKC


KCOF 251256Z AUTO 34010KT 10SM FEW055 15/14 A3008 RMK AO2 SLPNO T01520139 $

TAF KCOF 251100Z 2511/2617 VRB06KT 9999 SCT015 QNH3005INS
  BECMG 2515/2516 31010KT 9999 SKC QNH3004INS TX21/2519Z TN10/2611Z


KVRB 251353Z 32012KT 10SM SCT020 17/13 A3011 RMK AO2 SLP195 T01670128

KVRB 251408Z 2514/2612 31011KT P6SM FEW020 BKN050
  FM251600 33011KT P6SM SKC
  FM260000 VRB04KT P6SM SKC